Latest Weather Observations for Mackay

IDQ60801

Issued at 11:35 am EST Thursday 18 September 2014 (issued every 30 minutes, with the page automatically refreshed every 10 minutes)

About weather observations | Map of weather stations | Latest weather observations for QLD | Other Formats
Station Details ID: 033119 Name: MACKAY M.O Lat: -21.12 Lon: 149.22 Height: 30.26 m
Data from the previous 72 hours. | See also: Recent months at Mackay
Date/Time
EST
Temp
°C
App
Temp
°C
Dew
Point
Rel
Hum
%
Delta-T
°C
Wind Press
QNH
hPa
Press
MSL
hPa
Rain
since 9 am
mm
Dir
 
Spd
km/h
Gust
km/h
Spd
kts
Gust
kts
18/11:00am 25.3 21.9 10.6 39 8.2 SSE 19 30 10 16 1018.5 1018.4 0.0
18/10:30am 24.5 21.5 10.6 41 7.7 SE 17 24 9 13 1018.9 1018.8 0.0
18/10:00am 24.2 20.4 9.2 38 8.1 SSE 19 26 10 14 1019.0 1018.9 0.0
18/09:30am 23.3 23.6 16.9 67 3.9 SE 11 17 6 9 1019.2 1019.1 0.0
18/09:00am 22.2 21.4 15.1 64 4.2 SSE 13 20 7 11 1019.2 1019.1 0.2
18/08:30am 20.5 21.0 15.6 73 2.9 SSE 7 9 4 5 1019.2 1019.1 0.2
18/08:00am 18.8 18.6 15.8 83 1.8 S 11 17 6 9 1018.8 1018.7 0.2
18/07:30am 17.6 18.2 15.9 90 1.0 S 7 11 4 6 1018.0 1017.8 0.2
18/07:00am 16.5 17.1 15.3 93 0.7 N 6 7 3 4 1017.4 1017.2 0.2
18/06:30am 15.9 15.8 14.9 94 0.6 WSW 9 13 5 7 1017.0 1016.8 0.2
18/06:00am 16.8 17.5 15.6 93 0.7 WNW 6 9 3 5 1016.6 1016.4 0.2
18/05:30am 16.7 16.9 15.7 94 0.6 W 9 11 5 6 1016.3 1016.1 0.2
18/05:00am 17.7 18.3 16.9 95 0.5 WNW 9 11 5 6 1016.0 1015.8 0.2
18/04:30am 17.9 18.6 17.1 95 0.5 WNW 9 13 5 7 1015.7 1015.5 0.2
18/04:00am 17.6 18.2 16.8 95 0.5 WNW 9 11 5 6 1015.6 1015.4 0.2
18/03:30am 17.9 18.5 16.7 93 0.7 WNW 9 11 5 6 1015.7 1015.5 0.2
18/03:00am 17.8 17.9 16.6 93 0.7 WNW 11 15 6 8 1015.7 1015.5 0.2
18/02:30am 17.9 18.7 16.4 91 0.9 W 7 13 4 7 1016.0 1015.8 0.2
18/02:00am 18.4 18.6 16.7 90 1.0 NW 11 15 6 8 1016.1 1015.9 0.2
18/01:30am 18.4 18.5 16.6 89 1.1 NW 11 15 6 8 1016.1 1015.9 0.2
18/01:00am 18.5 18.7 16.7 89 1.1 NW 11 15 6 8 1016.4 1016.2 0.2
18/12:30am 19.0 19.8 17.2 89 1.1 WNW 9 13 5 7 1016.6 1016.4 0.2
18/12:00am 19.2 20.9 18.1 93 0.7 NW 6 11 3 6 1016.7 1016.5 0.2
 
Date/Time
EST
Temp
°C
App
Temp
°C
Dew
Point
Rel
Hum
%
Delta-T
°C
Wind Press
QNH
hPa
Press
MSL
hPa
Rain
since 9 am
mm
Dir
 
Spd
km/h
Gust
km/h
Spd
kts
Gust
kts
17/11:30pm 19.6 20.8 18.3 92 0.8 NW 9 13 5 7 1016.6 1016.4 0.2
17/11:00pm 20.1 21.3 18.3 89 1.1 NW 9 15 5 8 1016.6 1016.4 0.2
17/10:30pm 19.8 21.0 18.3 91 0.9 NNW 9 13 5 7 1016.5 1016.3 0.2
17/10:00pm 20.3 21.5 18.2 88 1.3 NNW 9 13 5 7 1016.6 1016.4 0.2
17/09:30pm 20.4 21.5 18.1 87 1.4 N 9 13 5 7 1016.4 1016.2 0.2
17/09:00pm 20.4 21.3 18.3 88 1.3 NNW 11 15 6 8 1016.5 1016.3 0.2
17/08:30pm 20.7 21.6 18.5 87 1.4 N 11 15 6 8 1016.4 1016.2 0.2
17/08:00pm 20.6 21.4 18.2 86 1.5 N 11 15 6 8 1016.2 1016.0 0.2
17/07:30pm 20.9 21.8 18.3 85 1.6 NNW 11 17 6 9 1016.1 1015.9 0.2
17/07:00pm 21.0 22.5 18.1 83 1.8 NNW 7 11 4 6 1015.7 1015.5 0.2
17/06:30pm 21.5 21.7 17.6 78 2.4 N 13 20 7 11 1015.1 1014.9 0.2
17/06:00pm 21.9 22.0 17.5 76 2.7 N 13 22 7 12 1014.7 1014.5 0.2
17/05:30pm 22.5 21.4 17.3 72 3.2 N 19 28 10 15 1014.3 1014.1 0.2
17/05:00pm 23.3 22.8 17.7 71 3.5 N 17 28 9 15 1013.9 1013.7 0.2
17/04:30pm 24.2 23.9 18.2 69 3.8 N 17 26 9 14 1013.8 1013.6 0.2
17/04:00pm 24.4 24.0 18.0 67 4.0 N 17 30 9 16 1013.7 1013.5 0.2
17/03:30pm 26.1 25.7 17.1 57 5.6 N 15 24 8 13 1013.6 1013.4 0.2
17/03:00pm 25.6 24.5 17.4 60 5.1 NNE 19 30 10 16 1013.7 1013.5 0.2
17/02:30pm 26.6 26.1 17.7 58 5.6 N 17 28 9 15 1014.1 1013.9 0.2
17/02:00pm 26.9 26.3 16.6 53 6.4 NNE 15 22 8 12 1014.3 1014.1 0.2
17/01:30pm 27.6 26.5 16.3 50 7.0 NNE 17 26 9 14 1014.6 1014.4 0.2
17/01:00pm 27.7 27.2 16.8 51 6.8 NNE 15 24 8 13 1015.2 1015.0 0.2
17/12:30pm 27.3 26.9 16.3 51 6.8 NNE 13 20 7 11 1015.5 1015.3 0.2
17/12:00pm 27.2 27.9 17.1 54 6.3 NNE 9 15 5 8 1016.0 1015.8 0.2
17/11:30am 26.3 27.3 17.7 59 5.4 NNE 9 19 5 10 1016.4 1016.2 0.2
17/11:00am 26.3 26.7 17.2 57 5.7 NE 11 19 6 10 1016.9 1016.7 0.2
17/10:30am 25.2 25.4 14.8 52 6.2 W 7 17 4 9 1017.2 1017.0 0.2
17/10:00am 23.9 24.2 16.0 61 4.8 W 9 15 5 8 1017.5 1017.3 0.2
17/09:30am 22.6 22.2 16.2 67 3.9 SW 13 17 7 9 1017.7 1017.5 0.2
17/09:00am 22.7 22.6 17.0 70 3.5 WNW 13 22 7 12 1017.7 1017.5 0.0
17/08:30am 21.2 20.7 16.8 76 2.7 NW 15 20 8 11 1017.1 1016.9 0.0
17/08:00am 19.6 20.2 16.8 84 1.7 NNW 9 13 5 7 1016.9 1016.7 0.0
17/07:30am 17.2 17.7 15.5 90 1.0 WSW 7 15 4 8 1016.8 1016.6 0.0
17/07:00am 15.6 15.4 14.7 94 0.5 WSW 9 15 5 8 1016.7 1016.5 0.0
17/06:30am 15.0 14.2 13.9 93 0.6 WSW 11 13 6 7 1016.4 1016.2 0.0
17/06:00am 14.7 13.9 14.0 96 0.4 WSW 11 13 6 7 1016.2 1016.0 0.0
17/05:30am 15.0 14.3 14.3 96 0.4 W 11 15 6 8 1015.8 1015.6 0.0
17/05:00am 14.9 14.3 14.5 97 0.2 WSW 11 15 6 8 1015.7 1015.5 0.0
17/04:30am 15.2 15.1 14.9 98 0.2 W 9 13 5 7 1015.4 1015.2 0.0
17/04:00am 15.6 15.2 15.1 97 0.3 WSW 11 15 6 8 1015.3 1015.1 0.0
17/03:30am 15.4 15.0 15.1 98 0.2 WSW 11 13 6 7 1015.4 1015.2 0.0
17/03:00am 15.5 15.5 15.2 98 0.2 WSW 9 11 5 6 1015.4 1015.2 0.0
17/02:30am 15.8 15.4 15.3 97 0.3 W 11 13 6 7 1015.6 1015.4 0.0
17/02:00am 16.1 16.6 15.6 97 0.3 W 7 9 4 5 1015.8 1015.6 0.0
17/01:30am 16.3 16.4 15.4 94 0.5 NW 9 11 5 6 1016.1 1015.9 0.0
17/01:00am 17.0 17.9 16.0 94 0.6 WNW 6 7 3 4 1016.3 1016.1 0.0
17/12:30am 18.3 18.8 16.6 90 1.0 NW 9 11 5 6 1016.5 1016.3 0.0
17/12:00am 17.8 18.7 16.5 92 0.8 WNW 7 9 4 5 1016.8 1016.6 0.0
 
Date/Time
EST
Temp
°C
App
Temp
°C
Dew
Point
Rel
Hum
%
Delta-T
°C
Wind Press
QNH
hPa
Press
MSL
hPa
Rain
since 9 am
mm
Dir
 
Spd
km/h
Gust
km/h
Spd
kts
Gust
kts
16/11:30pm 17.8 18.6 16.3 91 0.9 WNW 7 7 4 4 1017.0 1016.8 0.0
16/11:00pm 18.5 19.4 16.5 88 1.2 WNW 7 9 4 5 1017.2 1017.0 0.0
16/10:30pm 18.7 19.6 16.5 87 1.3 WNW 7 9 4 5 1017.0 1016.8 0.0
16/10:00pm 19.0 19.9 16.5 85 1.5 WNW 7 9 4 5 1017.1 1016.9 0.0
16/09:30pm 18.9 19.8 16.6 86 1.4 WNW 7 9 4 5 1017.2 1017.0 0.0
16/09:00pm 19.0 20.0 16.8 87 1.3 NW 7 9 4 5 1017.1 1016.9 0.0
16/08:30pm 19.1 20.1 16.9 87 1.3 N 7 9 4 5 1016.9 1016.7 0.0
16/08:00pm 19.3 20.5 17.3 88 1.2 N 7 9 4 5 1016.5 1016.3 0.0
16/07:30pm 19.1 20.2 17.0 88 1.3 NNE 7 11 4 6 1016.2 1016.0 0.0
16/07:00pm 19.4 20.4 16.9 85 1.5 NNE 7 13 4 7 1015.7 1015.5 0.0
16/06:30pm 19.4 20.7 17.1 86 1.4 NNE 6 11 3 6 1015.2 1015.0 0.0
16/06:00pm 20.2 21.2 16.9 81 2.0 NNE 7 11 4 6 1014.8 1014.6 0.0
16/05:30pm 21.4 22.5 17.0 76 2.7 NE 7 13 4 7 1014.7 1014.5 0.0
16/05:00pm 22.5 23.1 16.8 70 3.5 NE 9 17 5 9 1014.6 1014.4 0.0
16/04:30pm 23.4 24.5 17.1 67 3.9 NE 7 15 4 8 1014.6 1014.4 0.0
16/04:00pm 23.1 23.0 16.9 68 3.8 ENE 13 19 7 10 1014.6 1014.4 0.0
16/03:30pm 24.0 24.4 17.2 65 4.2 NE 11 15 6 8 1014.6 1014.4 0.0
16/03:00pm 23.6 23.6 17.1 67 4.0 NE 13 20 7 11 1014.6 1014.4 0.0
16/02:30pm 23.9 23.8 16.9 65 4.3 ENE 13 20 7 11 1014.9 1014.7 0.0
16/02:00pm 23.8 23.6 16.6 64 4.4 E 13 20 7 11 1015.4 1015.2 0.0
16/01:30pm 23.7 23.4 16.5 64 4.4 E 13 19 7 10 1015.7 1015.5 0.0
16/01:00pm 22.7 22.4 16.5 68 3.8 E 13 19 7 10 1016.2 1016.0 0.0
16/12:30pm 22.0 21.5 16.0 68 3.6 E 13 20 7 11 1016.5 1016.3 0.0
16/12:00pm 22.9 22.8 16.1 65 4.1 ESE 11 19 6 10 1016.9 1016.7 0.0
16/11:30am 23.3 23.4 16.6 66 4.1 ESE 11 17 6 9 1017.5 1017.3 0.0
16/11:00am 22.8 23.0 15.8 64 4.2 SE 9 15 5 8 1017.9 1017.7 0.0
16/10:30am 22.5 22.3 15.7 65 4.1 SE 11 15 6 8 1018.3 1018.1 0.0
16/10:00am 22.3 22.4 15.6 66 4.0 SSE 9 15 5 8 1018.6 1018.5 0.0
16/09:30am 22.5 22.9 16.4 68 3.7 SSE 9 19 5 10 1018.7 1018.6 0.0
16/09:00am 21.1 20.7 16.1 73 3.0 SW 13 17 7 9 1018.7 1018.6 0.0
16/08:30am 20.0 19.8 15.8 77 2.5 SSW 11 15 6 8 1018.7 1018.6 0.0
16/08:00am 18.2 18.4 15.7 85 1.5 SW 9 15 5 8 1018.6 1018.5 0.0
16/07:30am 16.5 15.6 14.9 90 0.9 SW 13 17 7 9 1018.1 1017.9 0.0
16/07:00am 15.2 14.2 14.5 96 0.4 SW 13 17 7 9 1017.8 1017.6 0.0
16/06:30am 14.4 13.6 14.0 97 0.2 WSW 11 17 6 9 1017.5 1017.3 0.0
16/06:00am 14.4 13.6 14.0 97 0.2 SW 11 15 6 8 1017.1 1016.9 0.0
16/05:30am 14.6 13.5 14.2 97 0.2 SW 13 17 7 9 1017.1 1016.9 0.0
16/05:00am 14.9 13.8 14.4 97 0.3 SW 13 17 7 9 1016.8 1016.6 0.0
16/04:30am 15.0 14.0 14.5 97 0.3 WSW 13 17 7 9 1016.4 1016.2 0.0
16/04:00am 15.2 14.2 14.5 96 0.4 SW 13 15 7 8 1016.3 1016.1 0.0
16/03:30am 15.4 14.1 14.9 97 0.3 WSW 15 20 8 11 1016.2 1016.0 0.0
16/03:00am 15.8 15.0 15.1 96 0.4 WSW 13 17 7 9 1016.2 1016.0 0.0
16/02:30am 15.8 15.1 15.3 97 0.3 SW 13 15 7 8 1016.2 1016.0 0.0
16/02:00am 16.0 15.6 15.3 96 0.4 WSW 11 13 6 7 1016.2 1016.0 0.0
16/01:30am 15.9 15.5 15.2 96 0.4 SW 11 15 6 8 1016.6 1016.4 0.0
16/01:00am 16.1 15.4 15.4 96 0.4 WSW 13 17 7 9 1016.8 1016.6 0.0
16/12:30am 16.1 15.5 15.6 97 0.3 SW 13 17 7 9 1016.9 1016.7 0.0
16/12:00am 16.3 16.0 15.4 94 0.5 SW 11 15 6 8 1017.0 1016.8 0.0
 
Date/Time
EST
Temp
°C
App
Temp
°C
Dew
Point
Rel
Hum
%
Delta-T
°C
Wind Press
QNH
hPa
Press
MSL
hPa
Rain
since 9 am
mm
Dir
 
Spd
km/h
Gust
km/h
Spd
kts
Gust
kts
15/11:30pm 16.6 16.4 15.7 94 0.5 WSW 11 15 6 8 1017.1 1016.9 0.0
15/11:00pm 16.7 16.5 15.7 94 0.6 WSW 11 13 6 7 1017.1 1016.9 0.0
15/10:30pm 18.1 18.6 15.5 85 1.5 S 7 11 4 6 1017.2 1017.0 0.0
15/10:00pm 20.2 19.8 15.3 73 2.9 E 11 15 6 8 1017.3 1017.1 0.0
15/09:30pm 20.0 19.7 15.4 75 2.7 E 11 15 6 8 1017.4 1017.2 0.0
15/09:00pm 20.1 19.0 15.2 73 2.9 E 15 19 8 10 1017.5 1017.3 0.0
15/08:30pm 20.1 19.0 15.4 74 2.8 E 15 24 8 13 1017.3 1017.1 0.0
15/08:00pm 20.1 19.4 15.4 74 2.8 E 13 20 7 11 1017.1 1016.9 0.0
15/07:30pm 20.5 19.4 15.4 72 3.0 E 15 22 8 12 1016.8 1016.6 0.0
15/07:00pm 20.5 19.2 15.8 74 2.8 E 17 24 9 13 1016.4 1016.2 0.0
15/06:30pm 20.6 19.5 16.3 76 2.6 E 17 24 9 13 1016.2 1016.0 0.0
15/06:00pm 20.7 19.7 15.7 73 3.0 E 15 22 8 12 1015.9 1015.7 0.0
15/05:30pm 21.0 20.6 16.2 74 2.9 E 13 22 7 12 1015.9 1015.7 0.0
15/05:00pm 21.4 20.4 16.6 74 2.9 E 17 24 9 13 1015.7 1015.5 0.0
15/04:30pm 21.7 21.5 16.6 73 3.1 E 13 24 7 13 1015.4 1015.2 0.0
15/04:00pm 21.8 21.1 16.4 71 3.3 ESE 15 20 8 11 1015.2 1015.0 0.0
15/03:30pm 22.8 22.8 17.1 70 3.5 ESE 13 22 7 12 1015.2 1015.0 0.0
15/03:00pm 22.8 22.8 17.1 70 3.5 ESE 13 22 7 12 1015.3 1015.1 0.0
15/02:30pm 22.6 22.7 17.4 72 3.2 SE 13 22 7 12 1015.4 1015.2 0.0
15/02:00pm 23.0 23.0 17.2 70 3.6 ESE 13 22 7 12 1015.7 1015.5 0.0
15/01:30pm 23.0 23.2 17.7 72 3.3 SE 13 24 7 13 1016.0 1015.8 0.0
15/01:00pm 23.0 22.8 17.7 72 3.3 SE 15 22 8 12 1016.2 1016.0 0.0
15/12:30pm 23.6 23.5 17.8 70 3.6 SSE 15 24 8 13 1016.5 1016.3 0.0
15/12:00pm 23.0 21.9 17.3 70 3.5 SSE 19 26 10 14 1017.0 1016.8 0.0

Other Formats:

Comma delimited format used in spreadsheet applications
http://www.bom.gov.au/fwo/IDQ60801/IDQ60801.94367.axf

JavaScript Object Notation format (JSON) in row-major order
http://www.bom.gov.au/fwo/IDQ60801/IDQ60801.94367.json